sensor_id;sensor_type;location;lat;lon;timestamp;pressure;altitude;pressure_sealevel;temperature;humidity
12178;BME280;6152;48.728;9.256;2023-02-21T00:01:57;97593.06;;;5.89;100.00
12178;BME280;6152;48.728;9.256;2023-02-21T00:04:42;97584.34;;;5.92;100.00
12178;BME280;6152;48.728;9.256;2023-02-21T00:07:27;97592.75;;;5.97;100.00
12178;BME280;6152;48.728;9.256;2023-02-21T00:10:13;97591.75;;;6.01;100.00
12178;BME280;6152;48.728;9.256;2023-02-21T00:12:58;97583.13;;;6.02;100.00
12178;BME280;6152;48.728;9.256;2023-02-21T00:15:43;97589.25;;;5.99;100.00
12178;BME280;6152;48.728;9.256;2023-02-21T00:18:31;97585.84;;;5.97;100.00
12178;BME280;6152;48.728;9.256;2023-02-21T00:21:16;97590.19;;;5.97;100.00
12178;BME280;6152;48.728;9.256;2023-02-21T00:24:01;97589.28;;;5.98;100.00
12178;BME280;6152;48.728;9.256;2023-02-21T00:26:45;97590.06;;;6.00;100.00
12178;BME280;6152;48.728;9.256;2023-02-21T00:29:30;97575.50;;;5.99;100.00
12178;BME280;6152;48.728;9.256;2023-02-21T00:32:15;97578.06;;;5.99;100.00
12178;BME280;6152;48.728;9.256;2023-02-21T00:34:59;97577.22;;;5.98;100.00
12178;BME280;6152;48.728;9.256;2023-02-21T00:37:48;97577.25;;;5.97;100.00
12178;BME280;6152;48.728;9.256;2023-02-21T00:40:32;97578.22;;;5.94;100.00
12178;BME280;6152;48.728;9.256;2023-02-21T00:43:17;97568.03;;;5.90;100.00
12178;BME280;6152;48.728;9.256;2023-02-21T00:46:02;97570.69;;;5.88;100.00
12178;BME280;6152;48.728;9.256;2023-02-21T00:48:46;97571.66;;;5.86;100.00
12178;BME280;6152;48.728;9.256;2023-02-21T00:51:31;97576.81;;;5.86;100.00
12178;BME280;6152;48.728;9.256;2023-02-21T00:54:16;97573.34;;;5.85;100.00
12178;BME280;6152;48.728;9.256;2023-02-21T00:57:00;97569.00;;;5.87;100.00
12178;BME280;6152;48.728;9.256;2023-02-21T00:59:45;97568.16;;;5.87;100.00
12178;BME280;6152;48.728;9.256;2023-02-21T01:02:29;97558.75;;;5.84;100.00
12178;BME280;6152;48.728;9.256;2023-02-21T01:05:14;97556.31;;;5.80;100.00
12178;BME280;6152;48.728;9.256;2023-02-21T01:07:58;97554.53;;;5.82;100.00
12178;BME280;6152;48.728;9.256;2023-02-21T01:10:43;97564.97;;;5.79;100.00
12178;BME280;6152;48.728;9.256;2023-02-21T01:13:27;97552.09;;;5.77;100.00
12178;BME280;6152;48.728;9.256;2023-02-21T01:16:12;97559.69;;;5.82;100.00
12178;BME280;6152;48.728;9.256;2023-02-21T01:18:56;97557.22;;;5.79;100.00
12178;BME280;6152;48.728;9.256;2023-02-21T01:21:41;97560.63;;;5.79;100.00
12178;BME280;6152;48.728;9.256;2023-02-21T01:24:26;97558.00;;;5.81;100.00
12178;BME280;6152;48.728;9.256;2023-02-21T01:27:10;97560.59;;;5.81;100.00
12178;BME280;6152;48.728;9.256;2023-02-21T01:29:55;97550.22;;;5.82;100.00
12178;BME280;6152;48.728;9.256;2023-02-21T01:32:39;97560.59;;;5.81;100.00
12178;BME280;6152;48.728;9.256;2023-02-21T01:35:24;97552.94;;;5.78;100.00
12178;BME280;6152;48.728;9.256;2023-02-21T01:38:09;97551.16;;;5.80;100.00
12178;BME280;6152;48.728;9.256;2023-02-21T01:40:53;97549.59;;;5.76;100.00
12178;BME280;6152;48.728;9.256;2023-02-21T01:43:54;97553.16;;;5.72;100.00
12178;BME280;6152;48.728;9.256;2023-02-21T01:46:39;97544.69;;;5.68;100.00
12178;BME280;6152;48.728;9.256;2023-02-21T01:49:23;97541.16;;;5.71;100.00
12178;BME280;6152;48.728;9.256;2023-02-21T01:52:09;97542.09;;;5.68;100.00
12178;BME280;6152;48.728;9.256;2023-02-21T01:54:55;97543.00;;;5.67;100.00
12178;BME280;6152;48.728;9.256;2023-02-21T01:57:41;97539.56;;;5.67;100.00
12178;BME280;6152;48.728;9.256;2023-02-21T02:00:28;97534.50;;;5.64;100.00
12178;BME280;6152;48.728;9.256;2023-02-21T02:03:14;97528.47;;;5.65;100.00
12178;BME280;6152;48.728;9.256;2023-02-21T02:06:05;97524.19;;;5.64;100.00
12178;BME280;6152;48.728;9.256;2023-02-21T02:08:50;97522.47;;;5.63;100.00
12178;BME280;6152;48.728;9.256;2023-02-21T02:11:54;97528.50;;;5.63;100.00
12178;BME280;6152;48.728;9.256;2023-02-21T02:31:56;97515.94;;;5.52;100.00
12178;BME280;6152;48.728;9.256;2023-02-21T02:45:24;97506.84;;;4.64;100.00
12178;BME280;6152;48.728;9.256;2023-02-21T02:47:56;97494.34;;;4.51;100.00
12178;BME280;6152;48.728;9.256;2023-02-21T02:50:24;97493.84;;;4.39;100.00
12178;BME280;6152;48.728;9.256;2023-02-21T02:52:55;97493.28;;;4.29;100.00
12178;BME280;6152;48.728;9.256;2023-02-21T02:56:14;97489.19;;;4.22;100.00
12178;BME280;6152;48.728;9.256;2023-02-21T02:58:21;97487.69;;;4.15;100.00
12178;BME280;6152;48.728;9.256;2023-02-21T03:04:00;97492.22;;;4.07;100.00
12178;BME280;6152;48.728;9.256;2023-02-21T03:09:30;97502.91;;;3.93;100.00
12178;BME280;6152;48.728;9.256;2023-02-21T03:14:59;97506.13;;;3.71;100.00
12178;BME280;6152;48.728;9.256;2023-02-21T03:17:31;97504.59;;;3.64;100.00
12178;BME280;6152;48.728;9.256;2023-02-21T03:20:01;97499.53;;;3.61;100.00
12178;BME280;6152;48.728;9.256;2023-02-21T03:22:29;97501.28;;;3.58;100.00
12178;BME280;6152;48.728;9.256;2023-02-21T03:24:58;97509.00;;;3.58;100.00
12178;BME280;6152;48.728;9.256;2023-02-21T03:27:26;97499.81;;;3.51;100.00
12178;BME280;6152;48.728;9.256;2023-02-21T03:29:56;97498.09;;;3.50;100.00
12178;BME280;6152;48.728;9.256;2023-02-21T03:35:01;97492.97;;;3.50;100.00
12178;BME280;6152;48.728;9.256;2023-02-21T03:37:43;97497.34;;;3.47;100.00
12178;BME280;6152;48.728;9.256;2023-02-21T03:40:18;97496.56;;;3.43;100.00
12178;BME280;6152;48.728;9.256;2023-02-21T03:42:45;97491.47;;;3.42;100.00
12178;BME280;6152;48.728;9.256;2023-02-21T03:45:11;97493.19;;;3.41;100.00
12178;BME280;6152;48.728;9.256;2023-02-21T03:47:37;97501.88;;;3.37;100.00
12178;BME280;6152;48.728;9.256;2023-02-21T03:50:03;97503.63;;;3.37;100.00
12178;BME280;6152;48.728;9.256;2023-02-21T03:52:30;97493.44;;;3.32;100.00
12178;BME280;6152;48.728;9.256;2023-02-21T03:54:56;97493.44;;;3.32;100.00
12178;BME280;6152;48.728;9.256;2023-02-21T03:57:22;97496.88;;;3.31;100.00
12178;BME280;6152;48.728;9.256;2023-02-21T03:59:48;97492.66;;;3.29;100.00
12178;BME280;6152;48.728;9.256;2023-02-21T04:02:15;97491.91;;;3.25;100.00
12178;BME280;6152;48.728;9.256;2023-02-21T04:04:41;97497.91;;;3.24;100.00
12178;BME280;6152;48.728;9.256;2023-02-21T04:07:08;97494.56;;;3.21;100.00
12178;BME280;6152;48.728;9.256;2023-02-21T04:09:34;97502.44;;;3.16;100.00
12178;BME280;6152;48.728;9.256;2023-02-21T04:12:00;97502.50;;;3.13;100.00
12178;BME280;6152;48.728;9.256;2023-02-21T04:14:27;97499.03;;;3.14;100.00
12178;BME280;6152;48.728;9.256;2023-02-21T04:16:53;97490.59;;;3.09;100.00
12178;BME280;6152;48.728;9.256;2023-02-21T04:19:19;97498.34;;;3.08;100.00
12178;BME280;6152;48.728;9.256;2023-02-21T04:21:45;97494.94;;;3.07;100.00
12178;BME280;6152;48.728;9.256;2023-02-21T04:24:11;97487.28;;;3.04;100.00
12178;BME280;6152;48.728;9.256;2023-02-21T04:26:37;97492.50;;;3.01;100.00
12178;BME280;6152;48.728;9.256;2023-02-21T04:29:04;97492.59;;;2.98;100.00
12178;BME280;6152;48.728;9.256;2023-02-21T04:31:30;97489.22;;;2.96;100.00
12178;BME280;6152;48.728;9.256;2023-02-21T04:33:58;97494.44;;;2.93;100.00
12178;BME280;6152;48.728;9.256;2023-02-21T04:36:24;97493.53;;;2.94;100.00
12178;BME280;6152;48.728;9.256;2023-02-21T04:38:51;97501.34;;;2.91;100.00
12178;BME280;6152;48.728;9.256;2023-02-21T04:41:17;97503.13;;;2.89;100.00
12178;BME280;6152;48.728;9.256;2023-02-21T04:43:44;97499.72;;;2.87;100.00
12178;BME280;6152;48.728;9.256;2023-02-21T04:46:12;97496.34;;;2.85;100.00
12178;BME280;6152;48.728;9.256;2023-02-21T04:48:45;97505.84;;;2.81;100.00
12178;BME280;6152;48.728;9.256;2023-02-21T04:51:12;97505.97;;;2.77;100.00
12178;BME280;6152;48.728;9.256;2023-02-21T04:53:38;97505.09;;;2.78;100.00
12178;BME280;6152;48.728;9.256;2023-02-21T04:56:05;97501.75;;;2.73;100.00
12178;BME280;6152;48.728;9.256;2023-02-21T04:58:31;97501.03;;;2.68;100.00
12178;BME280;6152;48.728;9.256;2023-02-21T05:00:58;97496.84;;;2.64;100.00
12178;BME280;6152;48.728;9.256;2023-02-21T05:03:24;97497.72;;;2.63;100.00
12178;BME280;6152;48.728;9.256;2023-02-21T05:05:51;97500.38;;;2.60;100.00
12178;BME280;6152;48.728;9.256;2023-02-21T05:08:17;97492.66;;;2.60;100.00
12178;BME280;6152;48.728;9.256;2023-02-21T05:10:43;97497.88;;;2.57;100.00
12178;BME280;6152;48.728;9.256;2023-02-21T05:13:09;97495.38;;;2.53;100.00
12178;BME280;6152;48.728;9.256;2023-02-21T05:15:35;97491.16;;;2.51;100.00
12178;BME280;6152;48.728;9.256;2023-02-21T05:18:01;97483.47;;;2.49;100.00
12178;BME280;6152;48.728;9.256;2023-02-21T05:20:27;97485.25;;;2.47;100.00
12178;BME280;6152;48.728;9.256;2023-02-21T05:22:53;97478.34;;;2.49;100.00
12178;BME280;6152;48.728;9.256;2023-02-21T05:25:21;97480.84;;;2.52;100.00
12178;BME280;6152;48.728;9.256;2023-02-21T05:27:49;97487.69;;;2.52;100.00
12178;BME280;6152;48.728;9.256;2023-02-21T05:30:17;97483.47;;;2.49;100.00
12178;BME280;6152;48.728;9.256;2023-02-21T05:32:44;97484.31;;;2.50;100.00
12178;BME280;6152;48.728;9.256;2023-02-21T05:35:12;97483.47;;;2.49;100.00
12178;BME280;6152;48.728;9.256;2023-02-21T05:37:38;97486.91;;;2.48;100.00
12178;BME280;6152;48.728;9.256;2023-02-21T05:40:05;97485.31;;;2.44;100.00
12178;BME280;6152;48.728;9.256;2023-02-21T05:42:31;97492.97;;;2.46;100.00
12178;BME280;6152;48.728;9.256;2023-02-21T05:44:58;97489.56;;;2.45;100.00
12178;BME280;6152;48.728;9.256;2023-02-21T05:47:25;97490.47;;;2.44;100.00
12178;BME280;6152;48.728;9.256;2023-02-21T05:49:51;97492.19;;;2.44;100.00
12178;BME280;6152;48.728;9.256;2023-02-21T05:52:17;97495.63;;;2.41;100.00
12178;BME280;6152;48.728;9.256;2023-02-21T05:54:44;97493.13;;;2.38;100.00
12178;BME280;6152;48.728;9.256;2023-02-21T05:57:10;97496.63;;;2.36;100.00
12178;BME280;6152;48.728;9.256;2023-02-21T05:59:37;97504.41;;;2.33;100.00
12178;BME280;6152;48.728;9.256;2023-02-21T06:02:04;97503.56;;;2.32;100.00
12178;BME280;6152;48.728;9.256;2023-02-21T06:04:30;97495.91;;;2.29;100.00
12178;BME280;6152;48.728;9.256;2023-02-21T06:06:56;97493.44;;;2.26;100.00
12178;BME280;6152;48.728;9.256;2023-02-21T06:09:22;97497.72;;;2.24;100.00
12178;BME280;6152;48.728;9.256;2023-02-21T06:11:48;97485.88;;;2.20;100.00
12178;BME280;6152;48.728;9.256;2023-02-21T06:14:18;97490.16;;;2.18;100.00
12178;BME280;6152;48.728;9.256;2023-02-21T06:16:45;97491.06;;;2.17;100.00
12178;BME280;6152;48.728;9.256;2023-02-21T06:19:13;97491.09;;;2.14;100.00
12178;BME280;6152;48.728;9.256;2023-02-21T06:21:41;97493.66;;;2.14;100.00
12178;BME280;6152;48.728;9.256;2023-02-21T06:24:09;97487.75;;;2.12;100.00
12178;BME280;6152;48.728;9.256;2023-02-21T06:26:35;97492.88;;;2.12;100.00
12178;BME280;6152;48.728;9.256;2023-02-21T06:29:06;97486.03;;;2.11;100.00
12178;BME280;6152;48.728;9.256;2023-02-21T06:31:33;97483.47;;;2.11;100.00
12178;BME280;6152;48.728;9.256;2023-02-21T06:33:59;97477.41;;;2.15;100.00
12178;BME280;6152;48.728;9.256;2023-02-21T06:36:27;97477.41;;;2.15;100.00
12178;BME280;6152;48.728;9.256;2023-02-21T06:38:55;97485.97;;;2.14;100.00
12178;BME280;6152;48.728;9.256;2023-02-21T06:41:24;97483.47;;;2.13;100.00
12178;BME280;6152;48.728;9.256;2023-02-21T06:43:54;97487.75;;;2.12;100.00
12178;BME280;6152;48.728;9.256;2023-02-21T06:46:23;97495.44;;;2.12;100.00
12178;BME280;6152;48.728;9.256;2023-02-21T06:48:50;97490.28;;;2.14;100.00
12178;BME280;6152;48.728;9.256;2023-02-21T06:51:17;97496.25;;;2.14;100.00
12178;BME280;6152;48.728;9.256;2023-02-21T06:53:47;97487.66;;;2.15;100.00
12178;BME280;6152;48.728;9.256;2023-02-21T06:56:14;97497.88;;;2.18;100.00
12178;BME280;6152;48.728;9.256;2023-02-21T06:58:40;97497.88;;;2.18;100.00
12178;BME280;6152;48.728;9.256;2023-02-21T07:01:06;97505.50;;;2.21;100.00
12178;BME280;6152;48.728;9.256;2023-02-21T07:03:32;97502.00;;;2.25;100.00
12178;BME280;6152;48.728;9.256;2023-02-21T07:05:58;97509.69;;;2.27;100.00
12178;BME280;6152;48.728;9.256;2023-02-21T07:08:24;97499.34;;;2.28;100.00
12178;BME280;6152;48.728;9.256;2023-02-21T07:10:51;97495.78;;;2.35;100.00
12178;BME280;6152;48.728;9.256;2023-02-21T07:13:17;97502.63;;;2.36;100.00
12178;BME280;6152;48.728;9.256;2023-02-21T07:15:43;97495.78;;;2.35;100.00
12178;BME280;6152;48.728;9.256;2023-02-21T07:18:10;97497.41;;;2.39;100.00
12178;BME280;6152;48.728;9.256;2023-02-21T07:20:36;97497.47;;;2.38;100.00
12178;BME280;6152;48.728;9.256;2023-02-21T07:23:02;97508.63;;;2.35;100.00
12178;BME280;6152;48.728;9.256;2023-02-21T07:25:28;97501.84;;;2.33;100.00
12178;BME280;6152;48.728;9.256;2023-02-21T07:27:55;97499.97;;;2.39;100.00
12178;BME280;6152;48.728;9.256;2023-02-21T07:30:21;97492.19;;;2.42;100.00
12178;BME280;6152;48.728;9.256;2023-02-21T07:32:47;97493.81;;;2.48;100.00
12178;BME280;6152;48.728;9.256;2023-02-21T07:35:13;97499.44;;;2.62;100.00
12178;BME280;6152;48.728;9.256;2023-02-21T07:37:39;97496.59;;;2.76;100.00
12178;BME280;6152;48.728;9.256;2023-02-21T07:40:06;97500.72;;;2.81;100.00
12178;BME280;6152;48.728;9.256;2023-02-21T07:42:32;97501.50;;;2.85;100.00
12178;BME280;6152;48.728;9.256;2023-02-21T07:44:58;97496.13;;;2.94;100.00
12178;BME280;6152;48.728;9.256;2023-02-21T07:47:25;97496.72;;;3.03;100.00
12178;BME280;6152;48.728;9.256;2023-02-21T07:49:52;97503.31;;;3.15;100.00
12178;BME280;6152;48.728;9.256;2023-02-21T07:52:19;97503.81;;;3.29;100.00
12178;BME280;6152;48.728;9.256;2023-02-21T07:54:46;97498.31;;;3.41;100.00
12178;BME280;6152;48.728;9.256;2023-02-21T07:57:12;97504.03;;;3.52;100.00
12178;BME280;6152;48.728;9.256;2023-02-21T07:59:40;97502.75;;;3.69;100.00
12178;BME280;6152;48.728;9.256;2023-02-21T08:02:06;97511.19;;;3.74;100.00
12178;BME280;6152;48.728;9.256;2023-02-21T08:04:34;97511.00;;;3.80;100.00
12178;BME280;6152;48.728;9.256;2023-02-21T08:07:01;97508.50;;;3.78;100.00
12178;BME280;6152;48.728;9.256;2023-02-21T08:09:28;97509.19;;;3.83;100.00
12178;BME280;6152;48.728;9.256;2023-02-21T08:11:54;97506.59;;;3.85;100.00
12178;BME280;6152;48.728;9.256;2023-02-21T08:14:20;97509.84;;;3.91;100.00
12178;BME280;6152;48.728;9.256;2023-02-21T08:16:46;97503.50;;;4.03;100.00
12178;BME280;6152;48.728;9.256;2023-02-21T08:19:12;97503.06;;;4.18;100.00
12178;BME280;6152;48.728;9.256;2023-02-21T08:21:43;97506.88;;;4.34;100.00
12178;BME280;6152;48.728;9.256;2023-02-21T08:24:10;97502.97;;;4.50;100.00
12178;BME280;6152;48.728;9.256;2023-02-21T08:26:36;97508.53;;;4.65;100.00
12178;BME280;6152;48.728;9.256;2023-02-21T08:29:02;97507.25;;;4.78;100.00
12178;BME280;6152;48.728;9.256;2023-02-21T08:31:29;97506.72;;;4.94;100.00
12178;BME280;6152;48.728;9.256;2023-02-21T08:33:55;97512.06;;;5.15;100.00
12178;BME280;6152;48.728;9.256;2023-02-21T08:36:21;97513.41;;;5.26;100.00
12178;BME280;6152;48.728;9.256;2023-02-21T08:38:50;97518.03;;;5.41;100.00
12178;BME280;6152;48.728;9.256;2023-02-21T08:41:16;97518.16;;;5.63;100.00
12178;BME280;6152;48.728;9.256;2023-02-21T08:43:42;97511.13;;;5.93;100.00
12178;BME280;6152;48.728;9.256;2023-02-21T08:46:08;97511.53;;;6.05;100.00
12178;BME280;6152;48.728;9.256;2023-02-21T08:48:34;97517.88;;;6.20;100.00
12178;BME280;6152;48.728;9.256;2023-02-21T08:51:01;97508.78;;;6.33;100.00
12178;BME280;6152;48.728;9.256;2023-02-21T08:53:28;97512.97;;;6.36;100.00
12178;BME280;6152;48.728;9.256;2023-02-21T08:55:54;97506.16;;;6.56;100.00
12178;BME280;6152;48.728;9.256;2023-02-21T08:58:20;97515.59;;;6.79;100.00
12178;BME280;6152;48.728;9.256;2023-02-21T09:00:46;97506.13;;;7.00;100.00
12178;BME280;6152;48.728;9.256;2023-02-21T09:03:12;97499.47;;;7.16;100.00
12178;BME280;6152;48.728;9.256;2023-02-21T09:05:38;97507.72;;;7.24;100.00
12178;BME280;6152;48.728;9.256;2023-02-21T09:08:04;97507.88;;;7.21;100.00
12178;BME280;6152;48.728;9.256;2023-02-21T09:10:34;97511.00;;;7.29;100.00
12178;BME280;6152;48.728;9.256;2023-02-21T09:13:02;97506.25;;;7.39;100.00
12178;BME280;6152;48.728;9.256;2023-02-21T09:15:29;97508.50;;;7.68;100.00
12178;BME280;6152;48.728;9.256;2023-02-21T09:17:55;97510.34;;;7.85;100.00
12178;BME280;6152;48.728;9.256;2023-02-21T09:20:24;97516.94;;;7.92;100.00
12178;BME280;6152;48.728;9.256;2023-02-21T09:22:50;97507.53;;;8.09;100.00
12178;BME280;6152;48.728;9.256;2023-02-21T09:25:20;97499.09;;;8.43;100.00
12178;BME280;6152;48.728;9.256;2023-02-21T09:27:48;97503.22;;;8.66;100.00
12178;BME280;6152;48.728;9.256;2023-02-21T09:30:18;97495.97;;;8.91;99.69
12178;BME280;6152;48.728;9.256;2023-02-21T09:32:47;97503.16;;;9.21;97.90
12178;BME280;6152;48.728;9.256;2023-02-21T09:35:14;97503.56;;;9.64;95.01
12178;BME280;6152;48.728;9.256;2023-02-21T09:37:44;97502.03;;;10.10;92.71
12178;BME280;6152;48.728;9.256;2023-02-21T09:40:33;97491.41;;;10.63;87.03
12178;BME280;6152;48.728;9.256;2023-02-21T09:43:03;97489.50;;;10.97;80.57
12178;BME280;6152;48.728;9.256;2023-02-21T09:45:32;97489.16;;;11.19;79.55
12178;BME280;6152;48.728;9.256;2023-02-21T09:48:05;97486.19;;;11.54;78.05
12178;BME280;6152;48.728;9.256;2023-02-21T09:50:40;97483.13;;;12.20;73.90
12178;BME280;6152;48.728;9.256;2023-02-21T09:53:07;97485.38;;;13.08;67.95
12178;BME280;6152;48.728;9.256;2023-02-21T09:55:38;97479.63;;;15.29;59.57
12178;BME280;6152;48.728;9.256;2023-02-21T09:58:16;97471.38;;;16.92;50.08
12178;BME280;6152;48.728;9.256;2023-02-21T10:00:42;97469.47;;;18.90;43.57
12178;BME280;6152;48.728;9.256;2023-02-21T10:06:26;97457.13;;;24.19;33.91
12178;BME280;6152;48.728;9.256;2023-02-21T10:09:09;97450.31;;;26.53;31.52
12178;BME280;6152;48.728;9.256;2023-02-21T10:12:01;97439.53;;;27.90;27.71
12178;BME280;6152;48.728;9.256;2023-02-21T10:17:37;97429.50;;;29.76;23.53
12178;BME280;6152;48.728;9.256;2023-02-21T10:20:26;97424.63;;;30.96;23.38
12178;BME280;6152;48.728;9.256;2023-02-21T10:22:55;97423.31;;;31.12;21.70
12178;BME280;6152;48.728;9.256;2023-02-21T10:25:30;97429.28;;;31.20;21.14
12178;BME280;6152;48.728;9.256;2023-02-21T10:27:58;97418.84;;;30.86;21.43
12178;BME280;6152;48.728;9.256;2023-02-21T10:30:29;97427.75;;;31.93;20.91
12178;BME280;6152;48.728;9.256;2023-02-21T10:32:57;97421.56;;;28.68;23.00
12178;BME280;6152;48.728;9.256;2023-02-21T10:35:23;97419.13;;;31.22;21.83
12178;BME280;6152;48.728;9.256;2023-02-21T10:37:57;97417.56;;;30.95;21.13
12178;BME280;6152;48.728;9.256;2023-02-21T10:48:44;97414.09;;;34.70;18.74
12178;BME280;6152;48.728;9.256;2023-02-21T10:51:13;97417.28;;;35.18;18.04
12178;BME280;6152;48.728;9.256;2023-02-21T10:59:02;97408.38;;;33.67;18.70
12178;BME280;6152;48.728;9.256;2023-02-21T11:01:35;97395.50;;;33.92;17.95
12178;BME280;6152;48.728;9.256;2023-02-21T11:04:06;97393.97;;;35.17;17.65
12178;BME280;6152;48.728;9.256;2023-02-21T11:06:38;97390.00;;;34.45;17.34
12178;BME280;6152;48.728;9.256;2023-02-21T11:09:28;97396.03;;;34.12;18.07
12178;BME280;6152;48.728;9.256;2023-02-21T11:15:02;97372.28;;;34.37;16.80
12178;BME280;6152;48.728;9.256;2023-02-21T11:17:30;97371.81;;;32.93;18.35
12178;BME280;6152;48.728;9.256;2023-02-21T11:20:23;97376.63;;;34.15;18.09
12178;BME280;6152;48.728;9.256;2023-02-21T11:22:57;97370.50;;;32.47;17.38
12178;BME280;6152;48.728;9.256;2023-02-21T11:25:37;97372.88;;;32.92;18.16
12178;BME280;6152;48.728;9.256;2023-02-21T11:28:15;97375.66;;;33.33;18.44
12178;BME280;6152;48.728;9.256;2023-02-21T11:31:12;97357.59;;;33.45;17.96
12178;BME280;6152;48.728;9.256;2023-02-21T11:33:43;97356.25;;;32.77;18.04
12178;BME280;6152;48.728;9.256;2023-02-21T11:36:18;97348.53;;;32.80;17.85
12178;BME280;6152;48.728;9.256;2023-02-21T11:39:06;97336.19;;;32.73;18.17
12178;BME280;6152;48.728;9.256;2023-02-21T11:42:03;97345.81;;;33.70;17.24
12178;BME280;6152;48.728;9.256;2023-02-21T11:44:40;97336.19;;;32.18;18.10
12178;BME280;6152;48.728;9.256;2023-02-21T11:50:02;97327.50;;;33.19;16.87
12178;BME280;6152;48.728;9.256;2023-02-21T11:52:38;97330.34;;;31.96;18.17
12178;BME280;6152;48.728;9.256;2023-02-21T11:55:19;97320.88;;;31.94;18.86
12178;BME280;6152;48.728;9.256;2023-02-21T11:58:33;97318.66;;;33.12;18.35
12178;BME280;6152;48.728;9.256;2023-02-21T12:01:07;97305.66;;;32.61;17.86
12178;BME280;6152;48.728;9.256;2023-02-21T12:06:37;97301.09;;;32.91;17.53
12178;BME280;6152;48.728;9.256;2023-02-21T12:17:37;97287.41;;;33.04;17.23
12178;BME280;6152;48.728;9.256;2023-02-21T12:20:35;97268.22;;;34.40;16.83
12178;BME280;6152;48.728;9.256;2023-02-21T12:23:34;97272.53;;;34.13;16.69
12178;BME280;6152;48.728;9.256;2023-02-21T12:29:18;97259.25;;;33.53;17.27
12178;BME280;6152;48.728;9.256;2023-02-21T12:37:20;97238.25;;;34.41;16.92
12178;BME280;6152;48.728;9.256;2023-02-21T12:40:17;97236.50;;;35.20;16.01
12178;BME280;6152;48.728;9.256;2023-02-21T12:45:56;97231.19;;;33.89;16.42
12178;BME280;6152;48.728;9.256;2023-02-21T12:51:09;97228.38;;;34.75;15.66
12178;BME280;6152;48.728;9.256;2023-02-21T12:56:35;97215.56;;;33.21;17.10
12178;BME280;6152;48.728;9.256;2023-02-21T12:59:13;97197.38;;;33.51;16.41
12178;BME280;6152;48.728;9.256;2023-02-21T13:01:53;97203.31;;;30.26;18.91
12178;BME280;6152;48.728;9.256;2023-02-21T13:09:47;97186.13;;;27.78;21.04
12178;BME280;6152;48.728;9.256;2023-02-21T13:12:24;97175.41;;;27.78;21.63
12178;BME280;6152;48.728;9.256;2023-02-21T13:14:59;97176.22;;;25.74;23.63
12178;BME280;6152;48.728;9.256;2023-02-21T13:17:27;97161.00;;;24.87;24.63
12178;BME280;6152;48.728;9.256;2023-02-21T13:20:06;97165.63;;;22.76;27.28
12178;BME280;6152;48.728;9.256;2023-02-21T13:22:35;97164.47;;;22.46;27.64
12178;BME280;6152;48.728;9.256;2023-02-21T13:25:33;97154.44;;;21.49;28.68
12178;BME280;6152;48.728;9.256;2023-02-21T13:28:20;97150.88;;;21.07;29.89
12178;BME280;6152;48.728;9.256;2023-02-21T13:30:51;97148.13;;;20.39;30.99
12178;BME280;6152;48.728;9.256;2023-02-21T13:33:39;97155.88;;;19.60;32.03
12178;BME280;6152;48.728;9.256;2023-02-21T13:39:13;97147.28;;;18.85;33.80
12178;BME280;6152;48.728;9.256;2023-02-21T13:41:53;97146.78;;;18.52;34.45
12178;BME280;6152;48.728;9.256;2023-02-21T13:44:27;97141.63;;;18.41;34.58
12178;BME280;6152;48.728;9.256;2023-02-21T13:49:49;97125.16;;;18.30;35.08
12178;BME280;6152;48.728;9.256;2023-02-21T14:03:00;97118.97;;;17.52;37.54
12178;BME280;6152;48.728;9.256;2023-02-21T14:08:30;97112.75;;;17.53;38.06
12178;BME280;6152;48.728;9.256;2023-02-21T14:11:01;97106.38;;;17.46;37.93
12178;BME280;6152;48.728;9.256;2023-02-21T14:13:55;97105.13;;;17.50;38.09
12178;BME280;6152;48.728;9.256;2023-02-21T14:19:17;97098.88;;;17.42;38.37
12178;BME280;6152;48.728;9.256;2023-02-21T14:21:47;97093.19;;;17.37;38.37
12178;BME280;6152;48.728;9.256;2023-02-21T14:24:20;97099.81;;;17.31;37.86
12178;BME280;6152;48.728;9.256;2023-02-21T14:29:36;97089.56;;;17.28;38.26
12178;BME280;6152;48.728;9.256;2023-02-21T14:37:27;97087.56;;;17.11;38.90
12178;BME280;6152;48.728;9.256;2023-02-21T14:48:30;97077.06;;;17.11;38.71
12178;BME280;6152;48.728;9.256;2023-02-21T15:00:14;97059.28;;;16.94;38.91
12178;BME280;6152;48.728;9.256;2023-02-21T15:08:21;97056.50;;;16.86;39.41
12178;BME280;6152;48.728;9.256;2023-02-21T15:11:01;97054.84;;;16.85;39.70
12178;BME280;6152;48.728;9.256;2023-02-21T15:13:32;97051.50;;;16.83;39.23
12178;BME280;6152;48.728;9.256;2023-02-21T15:16:05;97059.53;;;16.81;38.74
12178;BME280;6152;48.728;9.256;2023-02-21T15:18:34;97051.75;;;16.80;38.84
12178;BME280;6152;48.728;9.256;2023-02-21T15:23:43;97053.09;;;16.64;39.27
12178;BME280;6152;48.728;9.256;2023-02-21T15:26:25;97049.19;;;16.59;39.59
12178;BME280;6152;48.728;9.256;2023-02-21T15:29:15;97049.19;;;16.59;39.66
12178;BME280;6152;48.728;9.256;2023-02-21T15:31:48;97045.03;;;16.56;39.34
12178;BME280;6152;48.728;9.256;2023-02-21T15:34:28;97048.00;;;16.52;39.33
12178;BME280;6152;48.728;9.256;2023-02-21T15:37:21;97041.91;;;16.51;39.09
12178;BME280;6152;48.728;9.256;2023-02-21T15:39:51;97035.78;;;16.41;39.52
12178;BME280;6152;48.728;9.256;2023-02-21T15:42:19;97034.41;;;16.37;39.61
12178;BME280;6152;48.728;9.256;2023-02-21T15:44:55;97038.00;;;16.36;39.48
12178;BME280;6152;48.728;9.256;2023-02-21T15:47:24;97023.03;;;16.27;39.60
12178;BME280;6152;48.728;9.256;2023-02-21T15:50:06;97033.75;;;16.24;39.56
12178;BME280;6152;48.728;9.256;2023-02-21T15:52:43;97023.09;;;16.16;39.81
12178;BME280;6152;48.728;9.256;2023-02-21T15:57:46;97016.97;;;16.06;40.22
12178;BME280;6152;48.728;9.256;2023-02-21T16:03:38;97030.25;;;15.93;41.66
12178;BME280;6152;48.728;9.256;2023-02-21T16:06:29;97018.28;;;15.80;42.03
12178;BME280;6152;48.728;9.256;2023-02-21T16:11:51;97021.47;;;15.62;42.71
12178;BME280;6152;48.728;9.256;2023-02-21T16:17:18;97012.09;;;15.38;44.05
12178;BME280;6152;48.728;9.256;2023-02-21T16:19:48;97016.69;;;15.25;44.27
12178;BME280;6152;48.728;9.256;2023-02-21T16:27:31;97020.47;;;14.89;45.58
12178;BME280;6152;48.728;9.256;2023-02-21T16:29:57;97016.19;;;14.77;45.98
12178;BME280;6152;48.728;9.256;2023-02-21T16:32:23;97027.66;;;14.64;46.28
12178;BME280;6152;48.728;9.256;2023-02-21T16:34:50;97019.78;;;14.53;46.77